sensor_id;sensor_type;location;lat;lon;timestamp;P1;durP1;ratioP1;P2;durP2;ratioP2
59474;SDS011;45288;51.136;16.928;2023-08-12T00:01:35;75.68;;;68.35;;
59474;SDS011;45288;51.136;16.928;2023-08-12T00:04:01;69.90;;;63.57;;
59474;SDS011;45288;51.136;16.928;2023-08-12T00:06:26;58.53;;;52.25;;
59474;SDS011;45288;51.136;16.928;2023-08-12T00:08:53;89.40;;;81.07;;
59474;SDS011;45288;51.136;16.928;2023-08-12T00:11:19;135.20;;;124.33;;
59474;SDS011;45288;51.136;16.928;2023-08-12T00:13:44;109.38;;;99.65;;
59474;SDS011;45288;51.136;16.928;2023-08-12T00:16:10;99.13;;;90.47;;
59474;SDS011;45288;51.136;16.928;2023-08-12T00:18:36;81.93;;;74.78;;
59474;SDS011;45288;51.136;16.928;2023-08-12T00:21:08;98.07;;;89.85;;
59474;SDS011;45288;51.136;16.928;2023-08-12T00:23:38;136.80;;;126.13;;
59474;SDS011;45288;51.136;16.928;2023-08-12T00:26:06;301.95;;;278.33;;
59474;SDS011;45288;51.136;16.928;2023-08-12T00:28:32;264.77;;;244.03;;
59474;SDS011;45288;51.136;16.928;2023-08-12T00:30:58;655.40;;;603.53;;
59474;SDS011;45288;51.136;16.928;2023-08-12T00:33:24;370.23;;;340.47;;
59474;SDS011;45288;51.136;16.928;2023-08-12T00:35:50;49.22;;;43.80;;
59474;SDS011;45288;51.136;16.928;2023-08-12T00:38:16;52.67;;;46.60;;
59474;SDS011;45288;51.136;16.928;2023-08-12T00:40:42;117.63;;;108.10;;
59474;SDS011;45288;51.136;16.928;2023-08-12T00:43:07;63.72;;;57.75;;
59474;SDS011;45288;51.136;16.928;2023-08-12T00:45:35;136.93;;;125.75;;
59474;SDS011;45288;51.136;16.928;2023-08-12T00:48:04;124.45;;;114.95;;
59474;SDS011;45288;51.136;16.928;2023-08-12T00:50:30;171.93;;;158.77;;
59474;SDS011;45288;51.136;16.928;2023-08-12T00:52:56;245.95;;;227.15;;
59474;SDS011;45288;51.136;16.928;2023-08-12T00:55:22;120.97;;;111.45;;
59474;SDS011;45288;51.136;16.928;2023-08-12T00:57:48;76.32;;;68.97;;
59474;SDS011;45288;51.136;16.928;2023-08-12T01:00:14;60.27;;;53.93;;
59474;SDS011;45288;51.136;16.928;2023-08-12T01:02:44;249.90;;;230.32;;
59474;SDS011;45288;51.136;16.928;2023-08-12T01:05:14;246.55;;;227.85;;
59474;SDS011;45288;51.136;16.928;2023-08-12T01:07:39;158.30;;;146.05;;
59474;SDS011;45288;51.136;16.928;2023-08-12T01:10:05;236.23;;;218.67;;
59474;SDS011;45288;51.136;16.928;2023-08-12T01:12:40;135.02;;;124.70;;
59474;SDS011;45288;51.136;16.928;2023-08-12T01:15:08;225.98;;;209.25;;
59474;SDS011;45288;51.136;16.928;2023-08-12T01:17:37;240.32;;;222.38;;
59474;SDS011;45288;51.136;16.928;2023-08-12T01:20:04;267.85;;;248.07;;
59474;SDS011;45288;51.136;16.928;2023-08-12T01:22:38;284.42;;;262.65;;
59474;SDS011;45288;51.136;16.928;2023-08-12T01:25:07;344.35;;;317.55;;
59474;SDS011;45288;51.136;16.928;2023-08-12T01:27:35;212.40;;;196.23;;
59474;SDS011;45288;51.136;16.928;2023-08-12T01:30:01;130.63;;;120.30;;
59474;SDS011;45288;51.136;16.928;2023-08-12T01:32:32;287.30;;;265.57;;
59474;SDS011;45288;51.136;16.928;2023-08-12T01:35:07;97.43;;;89.00;;
59474;SDS011;45288;51.136;16.928;2023-08-12T01:37:35;162.70;;;150.30;;
59474;SDS011;45288;51.136;16.928;2023-08-12T01:40:03;64.28;;;58.03;;
59474;SDS011;45288;51.136;16.928;2023-08-12T01:42:30;206.03;;;189.97;;
59474;SDS011;45288;51.136;16.928;2023-08-12T01:44:57;263.83;;;243.50;;
59474;SDS011;45288;51.136;16.928;2023-08-12T01:47:24;78.88;;;70.95;;
59474;SDS011;45288;51.136;16.928;2023-08-12T01:49:50;87.60;;;79.88;;
59474;SDS011;45288;51.136;16.928;2023-08-12T01:52:15;98.20;;;90.10;;
59474;SDS011;45288;51.136;16.928;2023-08-12T01:54:41;399.65;;;368.92;;
59474;SDS011;45288;51.136;16.928;2023-08-12T01:57:07;605.40;;;559.17;;
59474;SDS011;45288;51.136;16.928;2023-08-12T01:59:34;191.68;;;177.15;;
59474;SDS011;45288;51.136;16.928;2023-08-12T02:02:00;487.40;;;449.07;;
59474;SDS011;45288;51.136;16.928;2023-08-12T02:04:26;349.10;;;323.13;;
59474;SDS011;45288;51.136;16.928;2023-08-12T02:06:52;295.17;;;273.17;;
59474;SDS011;45288;51.136;16.928;2023-08-12T02:09:19;239.05;;;220.85;;
59474;SDS011;45288;51.136;16.928;2023-08-12T02:11:45;150.37;;;138.23;;
59474;SDS011;45288;51.136;16.928;2023-08-12T02:14:10;130.33;;;119.83;;
59474;SDS011;45288;51.136;16.928;2023-08-12T02:16:36;153.07;;;140.93;;
59474;SDS011;45288;51.136;16.928;2023-08-12T02:19:02;160.73;;;148.47;;
59474;SDS011;45288;51.136;16.928;2023-08-12T02:21:27;99.47;;;89.75;;
59474;SDS011;45288;51.136;16.928;2023-08-12T02:23:53;84.20;;;76.73;;
59474;SDS011;45288;51.136;16.928;2023-08-12T02:26:19;75.33;;;68.33;;
59474;SDS011;45288;51.136;16.928;2023-08-12T02:28:47;82.70;;;75.30;;
59474;SDS011;45288;51.136;16.928;2023-08-12T02:31:15;121.72;;;112.22;;
59474;SDS011;45288;51.136;16.928;2023-08-12T02:33:41;186.75;;;171.23;;
59474;SDS011;45288;51.136;16.928;2023-08-12T02:36:07;130.03;;;120.33;;
59474;SDS011;45288;51.136;16.928;2023-08-12T02:38:32;135.45;;;124.45;;
59474;SDS011;45288;51.136;16.928;2023-08-12T02:40:58;109.03;;;99.97;;
59474;SDS011;45288;51.136;16.928;2023-08-12T02:43:24;157.68;;;144.70;;
59474;SDS011;45288;51.136;16.928;2023-08-12T02:45:49;42.85;;;27.45;;
59474;SDS011;45288;51.136;16.928;2023-08-12T02:48:15;36.47;;;19.80;;
59474;SDS011;45288;51.136;16.928;2023-08-12T02:50:41;41.58;;;15.68;;
59474;SDS011;45288;51.136;16.928;2023-08-12T02:53:07;34.97;;;16.77;;
59474;SDS011;45288;51.136;16.928;2023-08-12T02:55:33;43.70;;;22.13;;
59474;SDS011;45288;51.136;16.928;2023-08-12T02:58:00;141.45;;;130.60;;
59474;SDS011;45288;51.136;16.928;2023-08-12T03:00:26;105.03;;;95.50;;
59474;SDS011;45288;51.136;16.928;2023-08-12T03:02:51;118.28;;;108.15;;
59474;SDS011;45288;51.136;16.928;2023-08-12T03:05:17;102.37;;;93.57;;
59474;SDS011;45288;51.136;16.928;2023-08-12T03:07:43;68.25;;;61.47;;
59474;SDS011;45288;51.136;16.928;2023-08-12T03:10:10;85.95;;;78.05;;
59474;SDS011;45288;51.136;16.928;2023-08-12T03:12:35;88.05;;;79.93;;
59474;SDS011;45288;51.136;16.928;2023-08-12T03:15:05;90.43;;;82.95;;
59474;SDS011;45288;51.136;16.928;2023-08-12T03:17:32;104.50;;;95.30;;
59474;SDS011;45288;51.136;16.928;2023-08-12T03:19:57;78.15;;;70.95;;
59474;SDS011;45288;51.136;16.928;2023-08-12T03:22:28;77.63;;;70.18;;
59474;SDS011;45288;51.136;16.928;2023-08-12T03:24:54;226.35;;;209.20;;
59474;SDS011;45288;51.136;16.928;2023-08-12T03:27:20;37.53;;;19.97;;
59474;SDS011;45288;51.136;16.928;2023-08-12T03:29:46;35.80;;;14.27;;
59474;SDS011;45288;51.136;16.928;2023-08-12T03:32:13;38.08;;;14.38;;
59474;SDS011;45288;51.136;16.928;2023-08-12T03:34:39;40.03;;;14.43;;
59474;SDS011;45288;51.136;16.928;2023-08-12T03:37:05;36.08;;;14.05;;
59474;SDS011;45288;51.136;16.928;2023-08-12T03:39:32;38.95;;;14.40;;
59474;SDS011;45288;51.136;16.928;2023-08-12T03:41:59;37.70;;;14.45;;
59474;SDS011;45288;51.136;16.928;2023-08-12T03:44:25;43.60;;;15.43;;
59474;SDS011;45288;51.136;16.928;2023-08-12T03:46:51;44.60;;;15.38;;
59474;SDS011;45288;51.136;16.928;2023-08-12T03:49:18;41.38;;;14.95;;
59474;SDS011;45288;51.136;16.928;2023-08-12T03:51:44;47.92;;;15.95;;
59474;SDS011;45288;51.136;16.928;2023-08-12T03:54:10;35.77;;;14.17;;
59474;SDS011;45288;51.136;16.928;2023-08-12T03:56:36;46.75;;;16.33;;
59474;SDS011;45288;51.136;16.928;2023-08-12T03:59:03;42.97;;;15.50;;
59474;SDS011;45288;51.136;16.928;2023-08-12T04:01:29;39.70;;;15.20;;
59474;SDS011;45288;51.136;16.928;2023-08-12T04:03:55;36.07;;;13.80;;
59474;SDS011;45288;51.136;16.928;2023-08-12T04:06:22;44.78;;;15.75;;
59474;SDS011;45288;51.136;16.928;2023-08-12T04:08:47;45.67;;;16.47;;
59474;SDS011;45288;51.136;16.928;2023-08-12T04:11:13;42.20;;;15.33;;
59474;SDS011;45288;51.136;16.928;2023-08-12T04:13:40;44.90;;;15.27;;
59474;SDS011;45288;51.136;16.928;2023-08-12T04:16:05;46.30;;;15.77;;
59474;SDS011;45288;51.136;16.928;2023-08-12T04:18:31;43.35;;;16.35;;
59474;SDS011;45288;51.136;16.928;2023-08-12T04:20:58;39.97;;;14.45;;
59474;SDS011;45288;51.136;16.928;2023-08-12T04:23:24;37.28;;;14.93;;
59474;SDS011;45288;51.136;16.928;2023-08-12T04:25:51;79.88;;;65.97;;
59474;SDS011;45288;51.136;16.928;2023-08-12T04:28:19;59.75;;;53.85;;
59474;SDS011;45288;51.136;16.928;2023-08-12T04:30:46;51.50;;;42.15;;
59474;SDS011;45288;51.136;16.928;2023-08-12T04:33:13;54.13;;;48.25;;
59474;SDS011;45288;51.136;16.928;2023-08-12T04:35:39;51.70;;;38.20;;
59474;SDS011;45288;51.136;16.928;2023-08-12T04:38:06;49.35;;;40.67;;
59474;SDS011;45288;51.136;16.928;2023-08-12T04:40:32;50.80;;;39.65;;
59474;SDS011;45288;51.136;16.928;2023-08-12T04:42:58;44.93;;;31.23;;
59474;SDS011;45288;51.136;16.928;2023-08-12T04:45:24;41.67;;;32.20;;
59474;SDS011;45288;51.136;16.928;2023-08-12T04:47:49;52.90;;;43.58;;
59474;SDS011;45288;51.136;16.928;2023-08-12T04:50:18;48.72;;;27.38;;
59474;SDS011;45288;51.136;16.928;2023-08-12T04:52:44;47.70;;;26.50;;
59474;SDS011;45288;51.136;16.928;2023-08-12T04:55:12;43.72;;;26.63;;
59474;SDS011;45288;51.136;16.928;2023-08-12T04:57:37;60.53;;;30.45;;
59474;SDS011;45288;51.136;16.928;2023-08-12T05:00:04;40.33;;;21.02;;
59474;SDS011;45288;51.136;16.928;2023-08-12T05:02:30;44.65;;;17.10;;
59474;SDS011;45288;51.136;16.928;2023-08-12T05:04:56;43.00;;;18.33;;
59474;SDS011;45288;51.136;16.928;2023-08-12T05:07:22;38.80;;;20.65;;
59474;SDS011;45288;51.136;16.928;2023-08-12T05:09:48;38.20;;;13.63;;
59474;SDS011;45288;51.136;16.928;2023-08-12T05:12:15;35.03;;;20.58;;
59474;SDS011;45288;51.136;16.928;2023-08-12T05:14:41;60.78;;;33.63;;
59474;SDS011;45288;51.136;16.928;2023-08-12T05:17:07;98.68;;;89.57;;
59474;SDS011;45288;51.136;16.928;2023-08-12T05:19:34;121.87;;;112.00;;
59474;SDS011;45288;51.136;16.928;2023-08-12T05:22:00;105.32;;;95.88;;
59474;SDS011;45288;51.136;16.928;2023-08-12T05:24:26;150.13;;;137.93;;
59474;SDS011;45288;51.136;16.928;2023-08-12T05:26:52;313.70;;;289.35;;
59474;SDS011;45288;51.136;16.928;2023-08-12T05:29:18;252.82;;;233.63;;
59474;SDS011;45288;51.136;16.928;2023-08-12T05:31:43;171.27;;;157.37;;
59474;SDS011;45288;51.136;16.928;2023-08-12T05:34:09;351.27;;;323.52;;
59474;SDS011;45288;51.136;16.928;2023-08-12T05:36:35;232.48;;;213.73;;
59474;SDS011;45288;51.136;16.928;2023-08-12T05:39:01;157.77;;;145.15;;
59474;SDS011;45288;51.136;16.928;2023-08-12T05:41:27;110.57;;;100.97;;
59474;SDS011;45288;51.136;16.928;2023-08-12T05:43:52;93.85;;;85.22;;
59474;SDS011;45288;51.136;16.928;2023-08-12T05:46:18;47.57;;;38.50;;
59474;SDS011;45288;51.136;16.928;2023-08-12T05:48:44;42.93;;;16.90;;
59474;SDS011;45288;51.136;16.928;2023-08-12T05:51:09;37.47;;;21.50;;
59474;SDS011;45288;51.136;16.928;2023-08-12T05:53:36;42.55;;;19.42;;
59474;SDS011;45288;51.136;16.928;2023-08-12T05:56:02;44.30;;;23.17;;
59474;SDS011;45288;51.136;16.928;2023-08-12T05:58:27;33.70;;;17.50;;
59474;SDS011;45288;51.136;16.928;2023-08-12T06:00:53;147.53;;;135.40;;
59474;SDS011;45288;51.136;16.928;2023-08-12T06:03:19;156.93;;;145.30;;
59474;SDS011;45288;51.136;16.928;2023-08-12T06:05:45;105.45;;;96.82;;
59474;SDS011;45288;51.136;16.928;2023-08-12T06:08:11;110.47;;;101.63;;
59474;SDS011;45288;51.136;16.928;2023-08-12T06:10:37;72.30;;;65.38;;
59474;SDS011;45288;51.136;16.928;2023-08-12T06:13:03;70.22;;;63.25;;
59474;SDS011;45288;51.136;16.928;2023-08-12T06:15:29;73.78;;;67.13;;
59474;SDS011;45288;51.136;16.928;2023-08-12T06:17:55;104.88;;;95.63;;
59474;SDS011;45288;51.136;16.928;2023-08-12T06:20:21;82.67;;;75.57;;
59474;SDS011;45288;51.136;16.928;2023-08-12T06:22:47;45.83;;;39.13;;
59474;SDS011;45288;51.136;16.928;2023-08-12T06:25:12;103.20;;;94.57;;
59474;SDS011;45288;51.136;16.928;2023-08-12T06:27:38;187.30;;;172.07;;
59474;SDS011;45288;51.136;16.928;2023-08-12T06:30:04;59.93;;;54.27;;
59474;SDS011;45288;51.136;16.928;2023-08-12T06:32:30;46.78;;;41.72;;
59474;SDS011;45288;51.136;16.928;2023-08-12T06:34:56;83.27;;;75.40;;
59474;SDS011;45288;51.136;16.928;2023-08-12T06:37:21;78.88;;;72.18;;
59474;SDS011;45288;51.136;16.928;2023-08-12T06:39:47;230.40;;;212.02;;
59474;SDS011;45288;51.136;16.928;2023-08-12T06:42:13;123.03;;;113.83;;
59474;SDS011;45288;51.136;16.928;2023-08-12T06:44:38;56.13;;;45.83;;
59474;SDS011;45288;51.136;16.928;2023-08-12T06:47:04;62.90;;;56.75;;
59474;SDS011;45288;51.136;16.928;2023-08-12T06:49:30;37.90;;;26.00;;
59474;SDS011;45288;51.136;16.928;2023-08-12T06:51:55;217.65;;;200.25;;
59474;SDS011;45288;51.136;16.928;2023-08-12T06:54:22;309.73;;;283.70;;
59474;SDS011;45288;51.136;16.928;2023-08-12T06:56:48;138.40;;;127.03;;
59474;SDS011;45288;51.136;16.928;2023-08-12T06:59:14;121.72;;;111.65;;
59474;SDS011;45288;51.136;16.928;2023-08-12T07:01:40;87.95;;;80.32;;
59474;SDS011;45288;51.136;16.928;2023-08-12T07:04:06;75.55;;;68.68;;
59474;SDS011;45288;51.136;16.928;2023-08-12T07:06:31;72.27;;;64.67;;
59474;SDS011;45288;51.136;16.928;2023-08-12T07:08:57;94.77;;;86.13;;
59474;SDS011;45288;51.136;16.928;2023-08-12T07:11:22;134.70;;;123.70;;
59474;SDS011;45288;51.136;16.928;2023-08-12T07:13:48;104.88;;;96.50;;
59474;SDS011;45288;51.136;16.928;2023-08-12T07:16:14;124.17;;;114.33;;
59474;SDS011;45288;51.136;16.928;2023-08-12T07:18:40;110.85;;;101.75;;
59474;SDS011;45288;51.136;16.928;2023-08-12T07:21:06;59.73;;;53.93;;
59474;SDS011;45288;51.136;16.928;2023-08-12T07:23:31;94.03;;;84.47;;
59474;SDS011;45288;51.136;16.928;2023-08-12T07:25:57;65.03;;;57.90;;
59474;SDS011;45288;51.136;16.928;2023-08-12T07:28:23;142.87;;;131.53;;
59474;SDS011;45288;51.136;16.928;2023-08-12T07:30:48;152.00;;;139.73;;
59474;SDS011;45288;51.136;16.928;2023-08-12T07:33:15;222.00;;;204.15;;
59474;SDS011;45288;51.136;16.928;2023-08-12T07:35:40;258.13;;;237.63;;
59474;SDS011;45288;51.136;16.928;2023-08-12T07:38:06;108.33;;;99.87;;
59474;SDS011;45288;51.136;16.928;2023-08-12T07:40:32;137.33;;;126.00;;
59474;SDS011;45288;51.136;16.928;2023-08-12T07:42:57;135.88;;;125.03;;
59474;SDS011;45288;51.136;16.928;2023-08-12T07:45:23;143.60;;;132.50;;
59474;SDS011;45288;51.136;16.928;2023-08-12T07:47:49;206.50;;;189.47;;
59474;SDS011;45288;51.136;16.928;2023-08-12T07:50:15;167.95;;;154.20;;
59474;SDS011;45288;51.136;16.928;2023-08-12T07:52:40;119.13;;;109.43;;
59474;SDS011;45288;51.136;16.928;2023-08-12T07:55:07;136.80;;;126.18;;
59474;SDS011;45288;51.136;16.928;2023-08-12T07:57:32;143.17;;;131.97;;
59474;SDS011;45288;51.136;16.928;2023-08-12T07:59:58;55.70;;;49.67;;
59474;SDS011;45288;51.136;16.928;2023-08-12T08:02:24;171.27;;;157.70;;
59474;SDS011;45288;51.136;16.928;2023-08-12T08:04:50;276.33;;;253.40;;
59474;SDS011;45288;51.136;16.928;2023-08-12T08:07:17;187.17;;;172.53;;
59474;SDS011;45288;51.136;16.928;2023-08-12T08:09:43;233.50;;;214.18;;
59474;SDS011;45288;51.136;16.928;2023-08-12T08:12:09;184.90;;;170.13;;
59474;SDS011;45288;51.136;16.928;2023-08-12T08:14:35;324.80;;;297.88;;
59474;SDS011;45288;51.136;16.928;2023-08-12T08:17:01;294.13;;;270.10;;
59474;SDS011;45288;51.136;16.928;2023-08-12T08:19:27;253.07;;;232.85;;
59474;SDS011;45288;51.136;16.928;2023-08-12T08:21:53;301.97;;;277.67;;
59474;SDS011;45288;51.136;16.928;2023-08-12T08:24:19;184.40;;;170.13;;
59474;SDS011;45288;51.136;16.928;2023-08-12T08:26:45;205.17;;;188.93;;
59474;SDS011;45288;51.136;16.928;2023-08-12T08:29:13;476.07;;;435.43;;
59474;SDS011;45288;51.136;16.928;2023-08-12T08:31:39;470.38;;;429.52;;
59474;SDS011;45288;51.136;16.928;2023-08-12T08:34:04;379.48;;;347.80;;
59474;SDS011;45288;51.136;16.928;2023-08-12T08:36:30;328.20;;;301.37;;
59474;SDS011;45288;51.136;16.928;2023-08-12T08:38:56;366.70;;;336.13;;
59474;SDS011;45288;51.136;16.928;2023-08-12T08:41:22;327.40;;;300.45;;
59474;SDS011;45288;51.136;16.928;2023-08-12T08:43:49;957.33;;;877.67;;
59474;SDS011;45288;51.136;16.928;2023-08-12T08:46:15;870.17;;;798.38;;
59474;SDS011;45288;51.136;16.928;2023-08-12T08:48:42;582.38;;;531.60;;
59474;SDS011;45288;51.136;16.928;2023-08-12T08:51:09;471.65;;;431.05;;
59474;SDS011;45288;51.136;16.928;2023-08-12T08:53:38;874.13;;;801.15;;
59474;SDS011;45288;51.136;16.928;2023-08-12T08:56:05;1260.78;;;999.90;;
59474;SDS011;45288;51.136;16.928;2023-08-12T08:58:31;631.90;;;577.30;;
59474;SDS011;45288;51.136;16.928;2023-08-12T09:00:56;596.58;;;545.03;;
59474;SDS011;45288;51.136;16.928;2023-08-12T09:03:22;462.90;;;423.17;;
59474;SDS011;45288;51.136;16.928;2023-08-12T09:05:48;362.77;;;332.10;;
59474;SDS011;45288;51.136;16.928;2023-08-12T09:08:14;1284.40;;;999.90;;
59474;SDS011;45288;51.136;16.928;2023-08-12T09:10:40;1097.70;;;999.90;;
59474;SDS011;45288;51.136;16.928;2023-08-12T09:13:06;352.00;;;322.58;;
59474;SDS011;45288;51.136;16.928;2023-08-12T09:15:32;1084.05;;;993.08;;
59474;SDS011;45288;51.136;16.928;2023-08-12T09:17:58;1198.28;;;999.90;;
59474;SDS011;45288;51.136;16.928;2023-08-12T09:20:24;725.83;;;663.70;;
59474;SDS011;45288;51.136;16.928;2023-08-12T09:22:59;1122.18;;;999.90;;
59474;SDS011;45288;51.136;16.928;2023-08-12T09:25:29;1187.90;;;999.90;;
59474;SDS011;45288;51.136;16.928;2023-08-12T09:27:55;1203.00;;;999.90;;
59474;SDS011;45288;51.136;16.928;2023-08-12T09:30:21;1301.40;;;999.90;;
59474;SDS011;45288;51.136;16.928;2023-08-12T09:33:01;649.40;;;596.22;;
59474;SDS011;45288;51.136;16.928;2023-08-12T09:35:39;1312.80;;;999.90;;
59474;SDS011;45288;51.136;16.928;2023-08-12T09:38:06;1319.10;;;999.90;;
59474;SDS011;45288;51.136;16.928;2023-08-12T09:40:32;1335.55;;;999.90;;
59474;SDS011;45288;51.136;16.928;2023-08-12T09:42:58;1202.07;;;999.90;;
59474;SDS011;45288;51.136;16.928;2023-08-12T09:45:24;967.33;;;886.37;;
59474;SDS011;45288;51.136;16.928;2023-08-12T09:47:51;905.58;;;828.80;;
59474;SDS011;45288;51.136;16.928;2023-08-12T09:50:20;836.13;;;765.63;;
59474;SDS011;45288;51.136;16.928;2023-08-12T09:52:46;560.03;;;510.40;;
59474;SDS011;45288;51.136;16.928;2023-08-12T09:55:12;836.13;;;765.10;;
59474;SDS011;45288;51.136;16.928;2023-08-12T09:57:41;797.67;;;729.28;;
59474;SDS011;45288;51.136;16.928;2023-08-12T10:00:08;742.97;;;678.90;;
59474;SDS011;45288;51.136;16.928;2023-08-12T10:02:41;761.00;;;695.80;;
59474;SDS011;45288;51.136;16.928;2023-08-12T10:05:07;737.95;;;674.58;;
59474;SDS011;45288;51.136;16.928;2023-08-12T10:07:35;690.25;;;630.25;;
59474;SDS011;45288;51.136;16.928;2023-08-12T10:10:01;722.03;;;659.40;;
59474;SDS011;45288;51.136;16.928;2023-08-12T10:12:28;717.58;;;655.67;;
59474;SDS011;45288;51.136;16.928;2023-08-12T10:14:54;743.20;;;678.63;;
59474;SDS011;45288;51.136;16.928;2023-08-12T10:17:20;784.72;;;717.22;;
59474;SDS011;45288;51.136;16.928;2023-08-12T10:19:54;791.40;;;723.53;;
59474;SDS011;45288;51.136;16.928;2023-08-12T10:22:20;830.85;;;758.47;;
59474;SDS011;45288;51.136;16.928;2023-08-12T10:24:46;841.78;;;769.13;;
59474;SDS011;45288;51.136;16.928;2023-08-12T10:27:12;518.35;;;472.15;;
59474;SDS011;45288;51.136;16.928;2023-08-12T10:29:38;636.57;;;579.93;;
59474;SDS011;45288;51.136;16.928;2023-08-12T10:32:05;787.07;;;718.50;;
59474;SDS011;45288;51.136;16.928;2023-08-12T10:34:30;799.15;;;729.72;;
59474;SDS011;45288;51.136;16.928;2023-08-12T10:36:56;838.75;;;766.15;;
59474;SDS011;45288;51.136;16.928;2023-08-12T10:39:26;872.72;;;797.00;;
59474;SDS011;45288;51.136;16.928;2023-08-12T10:41:51;881.92;;;805.22;;
59474;SDS011;45288;51.136;16.928;2023-08-12T10:44:20;860.95;;;786.15;;
59474;SDS011;45288;51.136;16.928;2023-08-12T10:46:50;879.33;;;802.83;;
59474;SDS011;45288;51.136;16.928;2023-08-12T10:49:15;1291.10;;;999.90;;
59474;SDS011;45288;51.136;16.928;2023-08-12T11:02:17;1386.77;;;999.90;;
59474;SDS011;45288;51.136;16.928;2023-08-12T11:04:43;1342.25;;;999.90;;
59474;SDS011;45288;51.136;16.928;2023-08-12T11:07:18;965.80;;;883.57;;
59474;SDS011;45288;51.136;16.928;2023-08-12T11:09:44;35.67;;;21.75;;
59474;SDS011;45288;51.136;16.928;2023-08-12T11:12:11;691.88;;;629.75;;
59474;SDS011;45288;51.136;16.928;2023-08-12T11:15:02;1159.60;;;999.90;;
59474;SDS011;45288;51.136;16.928;2023-08-12T11:17:33;1006.30;;;920.97;;
59474;SDS011;45288;51.136;16.928;2023-08-12T11:19:59;785.10;;;716.60;;
59474;SDS011;45288;51.136;16.928;2023-08-12T11:22:26;1373.72;;;999.90;;
59474;SDS011;45288;51.136;16.928;2023-08-12T11:24:52;1372.35;;;999.90;;
59474;SDS011;45288;51.136;16.928;2023-08-12T11:27:17;518.70;;;473.10;;
59474;SDS011;45288;51.136;16.928;2023-08-12T11:29:43;991.15;;;908.35;;
59474;SDS011;45288;51.136;16.928;2023-08-12T11:32:09;1349.13;;;999.90;;
59474;SDS011;45288;51.136;16.928;2023-08-12T11:34:35;1353.95;;;999.90;;
59474;SDS011;45288;51.136;16.928;2023-08-12T11:37:02;1362.88;;;999.90;;
59474;SDS011;45288;51.136;16.928;2023-08-12T11:39:28;1354.20;;;999.90;;
59474;SDS011;45288;51.136;16.928;2023-08-12T11:41:55;1375.03;;;999.90;;
59474;SDS011;45288;51.136;16.928;2023-08-12T11:44:21;649.10;;;591.97;;
59474;SDS011;45288;51.136;16.928;2023-08-12T11:46:47;1007.07;;;922.43;;
59474;SDS011;45288;51.136;16.928;2023-08-12T11:49:12;1295.63;;;999.90;;
59474;SDS011;45288;51.136;16.928;2023-08-12T11:51:38;987.28;;;902.97;;
59474;SDS011;45288;51.136;16.928;2023-08-12T11:54:04;1304.27;;;999.90;;
59474;SDS011;45288;51.136;16.928;2023-08-12T11:56:30;1211.53;;;999.90;;
59474;SDS011;45288;51.136;16.928;2023-08-12T11:58:55;1133.43;;;999.90;;
59474;SDS011;45288;51.136;16.928;2023-08-12T12:01:22;1279.03;;;999.90;;
59474;SDS011;45288;51.136;16.928;2023-08-12T12:03:52;1263.53;;;999.90;;
59474;SDS011;45288;51.136;16.928;2023-08-12T12:06:27;1177.33;;;999.90;;
59474;SDS011;45288;51.136;16.928;2023-08-12T12:08:53;1128.45;;;999.90;;
59474;SDS011;45288;51.136;16.928;2023-08-12T12:11:19;1117.03;;;999.90;;
59474;SDS011;45288;51.136;16.928;2023-08-12T12:13:45;1174.70;;;999.90;;
59474;SDS011;45288;51.136;16.928;2023-08-12T12:16:12;456.38;;;414.85;;
59474;SDS011;45288;51.136;16.928;2023-08-12T12:18:38;575.78;;;522.90;;
59474;SDS011;45288;51.136;16.928;2023-08-12T12:21:06;837.47;;;763.40;;
59474;SDS011;45288;51.136;16.928;2023-08-12T12:23:32;863.33;;;787.38;;
59474;SDS011;45288;51.136;16.928;2023-08-12T12:26:00;37.35;;;12.60;;
59474;SDS011;45288;51.136;16.928;2023-08-12T12:28:25;107.35;;;98.90;;
59474;SDS011;45288;51.136;16.928;2023-08-12T12:30:51;246.67;;;225.27;;
59474;SDS011;45288;51.136;16.928;2023-08-12T12:33:17;324.42;;;295.98;;
59474;SDS011;45288;51.136;16.928;2023-08-12T12:35:42;164.63;;;150.82;;
59474;SDS011;45288;51.136;16.928;2023-08-12T12:38:09;184.07;;;168.73;;
59474;SDS011;45288;51.136;16.928;2023-08-12T12:40:34;206.75;;;189.68;;
59474;SDS011;45288;51.136;16.928;2023-08-12T12:43:00;229.47;;;209.70;;
59474;SDS011;45288;51.136;16.928;2023-08-12T12:45:27;236.93;;;217.65;;
59474;SDS011;45288;51.136;16.928;2023-08-12T12:47:53;290.73;;;265.70;;
59474;SDS011;45288;51.136;16.928;2023-08-12T12:50:18;431.52;;;392.80;;
59474;SDS011;45288;51.136;16.928;2023-08-12T12:52:44;1380.77;;;999.90;;
59474;SDS011;45288;51.136;16.928;2023-08-12T12:55:10;1024.55;;;940.75;;
59474;SDS011;45288;51.136;16.928;2023-08-12T12:57:35;794.20;;;724.35;;
59474;SDS011;45288;51.136;16.928;2023-08-12T13:00:01;1088.07;;;992.47;;
59474;SDS011;45288;51.136;16.928;2023-08-12T13:02:28;329.58;;;300.10;;
59474;SDS011;45288;51.136;16.928;2023-08-12T13:04:53;428.93;;;389.77;;
59474;SDS011;45288;51.136;16.928;2023-08-12T13:07:19;1039.82;;;952.72;;
59474;SDS011;45288;51.136;16.928;2023-08-12T13:09:45;708.35;;;645.22;;
59474;SDS011;45288;51.136;16.928;2023-08-12T13:12:10;308.43;;;281.90;;
59474;SDS011;45288;51.136;16.928;2023-08-12T13:14:36;1361.97;;;999.90;;
59474;SDS011;45288;51.136;16.928;2023-08-12T13:17:02;1370.85;;;999.90;;
59474;SDS011;45288;51.136;16.928;2023-08-12T13:19:28;1351.90;;;999.90;;
59474;SDS011;45288;51.136;16.928;2023-08-12T13:21:54;784.88;;;715.53;;
59474;SDS011;45288;51.136;16.928;2023-08-12T13:24:20;281.33;;;257.70;;
59474;SDS011;45288;51.136;16.928;2023-08-12T13:26:45;392.40;;;357.23;;
59474;SDS011;45288;51.136;16.928;2023-08-12T13:29:11;829.45;;;756.22;;
59474;SDS011;45288;51.136;16.928;2023-08-12T13:31:37;926.80;;;846.23;;
59474;SDS011;45288;51.136;16.928;2023-08-12T13:34:02;784.27;;;714.83;;
59474;SDS011;45288;51.136;16.928;2023-08-12T13:36:28;1198.63;;;999.90;;
59474;SDS011;45288;51.136;16.928;2023-08-12T13:38:55;1402.43;;;999.90;;
59474;SDS011;45288;51.136;16.928;2023-08-12T13:41:22;1405.80;;;999.90;;
59474;SDS011;45288;51.136;16.928;2023-08-12T13:43:47;731.88;;;669.63;;
59474;SDS011;45288;51.136;16.928;2023-08-12T13:46:13;344.50;;;314.40;;
59474;SDS011;45288;51.136;16.928;2023-08-12T13:48:39;485.93;;;442.63;;
59474;SDS011;45288;51.136;16.928;2023-08-12T13:51:04;1246.23;;;999.90;;
59474;SDS011;45288;51.136;16.928;2023-08-12T13:53:31;609.72;;;554.50;;
59474;SDS011;45288;51.136;16.928;2023-08-12T13:55:57;649.80;;;591.07;;
59474;SDS011;45288;51.136;16.928;2023-08-12T13:58:22;1314.93;;;999.90;;